Amsterdam — PBAD — position and weather

sailwx.info

Track history (hours):
 
Tides and Currents Weather Stations Pressure Air Temp Water Temp Dewpoint Dewpoint Depression Visibility Wind Speed Wind Dir Waves Ship Positions

Amsterdam

Operator: Holland America Line

Last reported at 2017-Oct-22 06:00 UTC. Time now 2017-Oct-22 08:33 UTC.
Position N 33°06' E 125°48'.

Type: Ship. MMSI: 244370000.

Wind from 360 at 24 knots

Barometer 1005.1 mb
Air temperature 19.4 ° C
Visibility: greater than 10.8 NM
Dewpoint 14.2 ° C
Water temperature 22.1 ° C

Date/timePositionNaut miles runAvg speedWind from/ knotsBaromVisibWave heightAir tempDewpointWater temp
2017-Oct-22 06:00N 33°06' E 125°48'8912.7 360 / 241005.110.8 19.414.222.1
2017-Oct-21 23:00N 32°12' E 127°12'14614.6 360 / 471000.3 5.4 19.917.926.0
2017-Oct-21 13:00N 31°12' E 129°48'87 3.8 030 / 341002.5 5.4 22.221.427.0
2017-Oct-20 14:00N 31°18' E 131°30'232 4.7 020 / 301011.410.8 21.019.428.5
2017-Oct-18 12:41N 33°54' E 134°54'417.3
2017-Oct-18 12:27N 33°58' E 134°55'818.3
2017-Oct-18 12:00N 34°06' E 134°57'816.8
2017-Oct-18 11:30N 34°14' E 134°57'713.5
2017-Oct-18 10:59N 34°21' E 134°59'817.1
2017-Oct-18 10:30N 34°27' E 135°06'917.5
2017-Oct-18 10:00N 34°32' E 135°14'917.0
2017-Oct-18 09:30N 34°38' E 135°22'3 6.5
2017-Oct-18 09:00N 34°39' E 135°26'0 0.2
2017-Oct-18 08:29N 34°39' E 135°26'0 0.0
2017-Oct-18 07:53N 34°39' E 135°26'0 0.0
2017-Oct-18 07:29N 34°39' E 135°26'0 0.0
2017-Oct-18 06:53N 34°39' E 135°26'0 0.0
2017-Oct-18 06:29N 34°39' E 135°26'0 0.0
2017-Oct-18 05:53N 34°39' E 135°26'0 0.0
2017-Oct-18 05:29N 34°39' E 135°26'0 0.0
2017-Oct-18 04:59N 34°39' E 135°26'0 0.0
2017-Oct-18 03:53N 34°39' E 135°26'0 0.0
2017-Oct-18 03:29N 34°39' E 135°26'0 0.0
2017-Oct-18 02:53N 34°39' E 135°26'0 0.0
2017-Oct-18 02:29N 34°39' E 135°26'0 0.0
2017-Oct-18 01:53N 34°39' E 135°26'0 0.0
2017-Oct-18 01:17N 34°39' E 135°26'0 0.0
2017-Oct-18 00:59N 34°39' E 135°26'0 0.0
2017-Oct-18 00:29N 34°39' E 135°26'0 0.0
2017-Oct-17 23:53N 34°39' E 135°26'0 0.0
2017-Oct-17 23:23N 34°39' E 135°26'0 0.0
2017-Oct-17 22:53N 34°39' E 135°26'2 3.8
2017-Oct-17 22:28N 34°39' E 135°24'510.0
2017-Oct-17 22:00N 34°36' E 135°20'612.6
2017-Oct-17 21:31N 34°32' E 135°14'815.4
2017-Oct-17 21:00N 34°26' E 135°07'815.7
2017-Oct-17 20:30N 34°20' E 135°01'815.5
2017-Oct-17 20:01N 34°13' E 134°59'713.7
2017-Oct-17 19:30N 34°06' E 134°58'918.4
2017-Oct-17 19:00N 33°57' E 134°59'8714.4
2017-Oct-17 13:00N 33°42' E 136°42'145 6.2 040 / 161028.110.8 18.117.324.1
2017-Oct-16 13:46N 34°51' E 139°17'4 8.0
2017-Oct-16 13:18N 34°53' E 139°20'2 8.1
2017-Oct-16 13:00N 34°54' E 139°22'4 8.2
2017-Oct-16 12:29N 34°57' E 139°26'4 8.1
2017-Oct-16 12:00N 34°59' E 139°30'4 8.0
2017-Oct-16 11:30N 35°01' E 139°34'4 8.1
2017-Oct-16 11:00N 35°04' E 139°38'4 8.4
2017-Oct-16 10:30N 35°06' E 139°43'5 9.7
2017-Oct-16 10:00N 35°10' E 139°45'611.3
2017-Oct-16 09:30N 35°16' E 139°46'612.7
2017-Oct-16 09:00N 35°22' E 139°42'510.7
2017-Oct-16 08:30N 35°27' E 139°41'2 3.6
2017-Oct-16 07:59N 35°27' E 139°39'0 0.0
2017-Oct-16 07:26N 35°27' E 139°39'0 0.0
2017-Oct-16 06:59N 35°27' E 139°39'0 0.0
2017-Oct-16 06:29N 35°27' E 139°39'0 0.0
2017-Oct-16 05:59N 35°27' E 139°39'0 0.0
2017-Oct-16 05:29N 35°27' E 139°39'0 0.0
2017-Oct-16 04:59N 35°27' E 139°39'0 0.1
2017-Oct-16 04:29N 35°27' E 139°39'0 0.1
2017-Oct-16 03:59N 35°27' E 139°39'0 0.0
2017-Oct-16 03:29N 35°27' E 139°39'0 0.0
2017-Oct-16 02:59N 35°27' E 139°39'0 0.0
2017-Oct-16 02:29N 35°27' E 139°39'0 0.0
2017-Oct-16 01:59N 35°27' E 139°39'0 0.0
2017-Oct-16 01:29N 35°27' E 139°39'0 0.0
2017-Oct-16 00:59N 35°27' E 139°39'0 0.0
2017-Oct-16 00:29N 35°27' E 139°39'0 0.0
2017-Oct-15 23:59N 35°27' E 139°39'0 0.0
2017-Oct-15 23:29N 35°27' E 139°39'0 0.0
2017-Oct-15 22:59N 35°27' E 139°39'0 0.0
2017-Oct-15 22:29N 35°27' E 139°39'0 0.0
2017-Oct-15 21:59N 35°27' E 139°39'0 0.0
2017-Oct-15 21:29N 35°27' E 139°39'0 0.1
2017-Oct-15 20:59N 35°27' E 139°39'0 0.0
2017-Oct-15 20:29N 35°27' E 139°39'0 0.0
2017-Oct-15 19:59N 35°27' E 139°39'0 0.1
2017-Oct-15 19:29N 35°27' E 139°39'0 0.1
2017-Oct-15 18:59N 35°27' E 139°39'0 0.0
2017-Oct-15 18:29N 35°27' E 139°39'0 0.1
2017-Oct-15 17:59N 35°27' E 139°39'0 0.0
2017-Oct-15 17:29N 35°27' E 139°39'0 0.0
2017-Oct-15 16:59N 35°27' E 139°39'0 0.0
2017-Oct-15 16:29N 35°27' E 139°39'0 0.0
2017-Oct-15 15:59N 35°27' E 139°39'0 0.0
2017-Oct-15 15:29N 35°27' E 139°39'0 0.0
2017-Oct-15 14:59N 35°27' E 139°39'0 0.0
2017-Oct-15 13:59N 35°27' E 139°39'0 0.0
2017-Oct-15 13:29N 35°27' E 139°39'0 0.0
2017-Oct-15 12:59N 35°27' E 139°39'0 0.1
2017-Oct-15 12:29N 35°27' E 139°39'0 0.1
2017-Oct-15 11:59N 35°27' E 139°39'0 0.0
2017-Oct-15 11:29N 35°27' E 139°39'0 0.0
2017-Oct-15 10:59N 35°27' E 139°39'0 0.0
2017-Oct-15 10:29N 35°27' E 139°39'0 0.0
2017-Oct-15 09:59N 35°27' E 139°39'0 0.0
2017-Oct-15 09:29N 35°27' E 139°39'0 0.0
2017-Oct-15 08:59N 35°27' E 139°39'0 0.0
2017-Oct-15 08:26N 35°27' E 139°39'0 0.0
2017-Oct-15 07:59N 35°27' E 139°39'0 0.0
2017-Oct-15 07:29N 35°27' E 139°39'0 0.0
2017-Oct-15 06:59N 35°27' E 139°39'0 0.0
2017-Oct-15 06:29N 35°27' E 139°39'0 0.0
2017-Oct-15 05:59N 35°27' E 139°39'0 0.0
2017-Oct-15 05:29N 35°27' E 139°39'0 0.0
2017-Oct-15 04:59N 35°27' E 139°39'0 0.0
2017-Oct-15 04:29N 35°27' E 139°39'0 0.0
2017-Oct-15 03:59N 35°27' E 139°39'0 0.0
2017-Oct-15 03:29N 35°27' E 139°39'0 0.0
2017-Oct-15 02:59N 35°27' E 139°39'0 0.0
2017-Oct-15 02:29N 35°27' E 139°39'0 0.0
2017-Oct-15 01:59N 35°27' E 139°39'0 0.0
2017-Oct-15 01:29N 35°27' E 139°39'0 0.0
2017-Oct-15 00:59N 35°27' E 139°39'0 0.1
2017-Oct-15 00:29N 35°27' E 139°39'0 0.1
2017-Oct-14 23:59N 35°27' E 139°39'0 0.0
2017-Oct-14 23:29N 35°27' E 139°39'0 0.0
2017-Oct-14 22:59N 35°27' E 139°39'1 1.3
2017-Oct-14 22:30N 35°27' E 139°39'3 6.3
2017-Oct-14 22:00N 35°26' E 139°43'2 4.8
2017-Oct-14 21:30N 35°23' E 139°43'611.4
2017-Oct-14 21:00N 35°18' E 139°45'612.2
2017-Oct-14 20:30N 35°12' E 139°47'612.2
2017-Oct-14 20:01N 35°06' E 139°46'815.7
2017-Oct-14 19:30N 34°58' E 139°43'815.3
2017-Oct-14 19:00N 34°51' E 139°47'1115.4
2017-Oct-14 18:18N 34°50' E 139°60'616.2
2017-Oct-14 17:58N 34°51' E 140°07'2816.0
2017-Oct-14 16:12N 35°04' E 140°37'4814.9
2017-Oct-14 13:00N 35°42' E 141°12'1818.0 030 / 191021.710.8 18.417.415.0
2017-Oct-14 12:00N 36°00' E 141°12'17215.6 020 / 221021.0 5.4 16.916.123.1
2017-Oct-14 01:00N 38°42' E 142°24'14516.2 330 / 101023.810.8 16.913.218.0
2017-Oct-13 16:00N 41°00' E 143°24'179 7.2 330 / 251022.110.8 13.0 7.914.0
2017-Oct-12 15:00N 42°54' E 146°30'2222.0 350 / 101012.810.8 10.5 9.511.0
2017-Oct-12 14:00N 42°54' E 147°00'1414.5 350 / 171011.410.8 10.810.413.0
2017-Oct-12 13:00N 43°00' E 147°18'   360 / 91011.210.8 10.4 9.811.7
Track history (hours):
 
Tides and Currents Weather Stations Pressure Air Temp Water Temp Dewpoint Dewpoint Depression Visibility Wind Speed Wind Dir Waves Ship Positions

Amsterdam

Operator: Holland America Line

Last reported at 2017-Oct-22 06:00 UTC. Time now 2017-Oct-22 08:33 UTC.
Position N 33°06' E 125°48'.

Type: Ship. MMSI: 244370000.

Wind from 360 at 24 knots

Barometer 1005.1 mb
Air temperature 19.4 ° C
Visibility: greater than 10.8 NM
Dewpoint 14.2 ° C
Water temperature 22.1 ° C

Date/timePositionNaut miles runAvg speedWind from/ knotsBaromVisibWave heightAir tempDewpointWater temp
2017-Oct-22 06:00N 33°06' E 125°48'8912.7 360 / 241005.110.8 19.414.222.1
2017-Oct-21 23:00N 32°12' E 127°12'14614.6 360 / 471000.3 5.4 19.917.926.0
2017-Oct-21 13:00N 31°12' E 129°48'87 3.8 030 / 341002.5 5.4 22.221.427.0
2017-Oct-20 14:00N 31°18' E 131°30'232 4.7 020 / 301011.410.8 21.019.428.5
2017-Oct-18 12:41N 33°54' E 134°54'417.3
2017-Oct-18 12:27N 33°58' E 134°55'818.3
2017-Oct-18 12:00N 34°06' E 134°57'816.8
2017-Oct-18 11:30N 34°14' E 134°57'713.5
2017-Oct-18 10:59N 34°21' E 134°59'817.1
2017-Oct-18 10:30N 34°27' E 135°06'917.5
2017-Oct-18 10:00N 34°32' E 135°14'917.0
2017-Oct-18 09:30N 34°38' E 135°22'3 6.5
2017-Oct-18 09:00N 34°39' E 135°26'0 0.2
2017-Oct-18 08:29N 34°39' E 135°26'0 0.0
2017-Oct-18 07:53N 34°39' E 135°26'0 0.0
2017-Oct-18 07:29N 34°39' E 135°26'0 0.0
2017-Oct-18 06:53N 34°39' E 135°26'0 0.0
2017-Oct-18 06:29N 34°39' E 135°26'0 0.0
2017-Oct-18 05:53N 34°39' E 135°26'0 0.0
2017-Oct-18 05:29N 34°39' E 135°26'0 0.0
2017-Oct-18 04:59N 34°39' E 135°26'0 0.0
2017-Oct-18 03:53N 34°39' E 135°26'0 0.0
2017-Oct-18 03:29N 34°39' E 135°26'0 0.0
2017-Oct-18 02:53N 34°39' E 135°26'0 0.0
2017-Oct-18 02:29N 34°39' E 135°26'0 0.0
2017-Oct-18 01:53N 34°39' E 135°26'0 0.0
2017-Oct-18 01:17N 34°39' E 135°26'0 0.0
2017-Oct-18 00:59N 34°39' E 135°26'0 0.0
2017-Oct-18 00:29N 34°39' E 135°26'0 0.0
2017-Oct-17 23:53N 34°39' E 135°26'0 0.0
2017-Oct-17 23:23N 34°39' E 135°26'0 0.0
2017-Oct-17 22:53N 34°39' E 135°26'2 3.8
2017-Oct-17 22:28N 34°39' E 135°24'510.0
2017-Oct-17 22:00N 34°36' E 135°20'612.6
2017-Oct-17 21:31N 34°32' E 135°14'815.4
2017-Oct-17 21:00N 34°26' E 135°07'815.7
2017-Oct-17 20:30N 34°20' E 135°01'815.5
2017-Oct-17 20:01N 34°13' E 134°59'713.7
2017-Oct-17 19:30N 34°06' E 134°58'918.4
2017-Oct-17 19:00N 33°57' E 134°59'8714.4
2017-Oct-17 13:00N 33°42' E 136°42'145 6.2 040 / 161028.110.8 18.117.324.1
2017-Oct-16 13:46N 34°51' E 139°17'4 8.0
2017-Oct-16 13:18N 34°53' E 139°20'2 8.1
2017-Oct-16 13:00N 34°54' E 139°22'4 8.2
2017-Oct-16 12:29N 34°57' E 139°26'4 8.1
2017-Oct-16 12:00N 34°59' E 139°30'4 8.0
2017-Oct-16 11:30N 35°01' E 139°34'4 8.1
2017-Oct-16 11:00N 35°04' E 139°38'4 8.4
2017-Oct-16 10:30N 35°06' E 139°43'5 9.7
2017-Oct-16 10:00N 35°10' E 139°45'611.3
2017-Oct-16 09:30N 35°16' E 139°46'612.7
2017-Oct-16 09:00N 35°22' E 139°42'510.7
2017-Oct-16 08:30N 35°27' E 139°41'2 3.6
2017-Oct-16 07:59N 35°27' E 139°39'0 0.0
2017-Oct-16 07:26N 35°27' E 139°39'0 0.0
2017-Oct-16 06:59N 35°27' E 139°39'0 0.0
2017-Oct-16 06:29N 35°27' E 139°39'0 0.0
2017-Oct-16 05:59N 35°27' E 139°39'0 0.0
2017-Oct-16 05:29N 35°27' E 139°39'0 0.0
2017-Oct-16 04:59N 35°27' E 139°39'0 0.1
2017-Oct-16 04:29N 35°27' E 139°39'0 0.1
2017-Oct-16 03:59N 35°27' E 139°39'0 0.0
2017-Oct-16 03:29N 35°27' E 139°39'0 0.0
2017-Oct-16 02:59N 35°27' E 139°39'0 0.0
2017-Oct-16 02:29N 35°27' E 139°39'0 0.0
2017-Oct-16 01:59N 35°27' E 139°39'0 0.0
2017-Oct-16 01:29N 35°27' E 139°39'0 0.0
2017-Oct-16 00:59N 35°27' E 139°39'0 0.0
2017-Oct-16 00:29N 35°27' E 139°39'0 0.0
2017-Oct-15 23:59N 35°27' E 139°39'0 0.0
2017-Oct-15 23:29N 35°27' E 139°39'0 0.0
2017-Oct-15 22:59N 35°27' E 139°39'0 0.0
2017-Oct-15 22:29N 35°27' E 139°39'0 0.0
2017-Oct-15 21:59N 35°27' E 139°39'0 0.0
2017-Oct-15 21:29N 35°27' E 139°39'0 0.1
2017-Oct-15 20:59N 35°27' E 139°39'0 0.0
2017-Oct-15 20:29N 35°27' E 139°39'0 0.0
2017-Oct-15 19:59N 35°27' E 139°39'0 0.1
2017-Oct-15 19:29N 35°27' E 139°39'0 0.1
2017-Oct-15 18:59N 35°27' E 139°39'0 0.0
2017-Oct-15 18:29N 35°27' E 139°39'0 0.1
2017-Oct-15 17:59N 35°27' E 139°39'0 0.0
2017-Oct-15 17:29N 35°27' E 139°39'0 0.0
2017-Oct-15 16:59N 35°27' E 139°39'0 0.0
2017-Oct-15 16:29N 35°27' E 139°39'0 0.0
2017-Oct-15 15:59N 35°27' E 139°39'0 0.0
2017-Oct-15 15:29N 35°27' E 139°39'0 0.0
2017-Oct-15 14:59N 35°27' E 139°39'0 0.0
2017-Oct-15 13:59N 35°27' E 139°39'0 0.0
2017-Oct-15 13:29N 35°27' E 139°39'0 0.0
2017-Oct-15 12:59N 35°27' E 139°39'0 0.1
2017-Oct-15 12:29N 35°27' E 139°39'0 0.1
2017-Oct-15 11:59N 35°27' E 139°39'0 0.0
2017-Oct-15 11:29N 35°27' E 139°39'0 0.0
2017-Oct-15 10:59N 35°27' E 139°39'0 0.0
2017-Oct-15 10:29N 35°27' E 139°39'0 0.0
2017-Oct-15 09:59N 35°27' E 139°39'0 0.0
2017-Oct-15 09:29N 35°27' E 139°39'0 0.0
2017-Oct-15 08:59N 35°27' E 139°39'0 0.0
2017-Oct-15 08:26N 35°27' E 139°39'0 0.0
2017-Oct-15 07:59N 35°27' E 139°39'0 0.0
2017-Oct-15 07:29N 35°27' E 139°39'0 0.0
2017-Oct-15 06:59N 35°27' E 139°39'0 0.0
2017-Oct-15 06:29N 35°27' E 139°39'0 0.0
2017-Oct-15 05:59N 35°27' E 139°39'0 0.0
2017-Oct-15 05:29N 35°27' E 139°39'0 0.0
2017-Oct-15 04:59N 35°27' E 139°39'0 0.0
2017-Oct-15 04:29N 35°27' E 139°39'0 0.0
2017-Oct-15 03:59N 35°27' E 139°39'0 0.0
2017-Oct-15 03:29N 35°27' E 139°39'0 0.0
2017-Oct-15 02:59N 35°27' E 139°39'0 0.0
2017-Oct-15 02:29N 35°27' E 139°39'0 0.0
2017-Oct-15 01:59N 35°27' E 139°39'0 0.0
2017-Oct-15 01:29N 35°27' E 139°39'0 0.0
2017-Oct-15 00:59N 35°27' E 139°39'0 0.1
2017-Oct-15 00:29N 35°27' E 139°39'0 0.1
2017-Oct-14 23:59N 35°27' E 139°39'0 0.0
2017-Oct-14 23:29N 35°27' E 139°39'0 0.0
2017-Oct-14 22:59N 35°27' E 139°39'1 1.3
2017-Oct-14 22:30N 35°27' E 139°39'3 6.3
2017-Oct-14 22:00N 35°26' E 139°43'2 4.8
2017-Oct-14 21:30N 35°23' E 139°43'611.4
2017-Oct-14 21:00N 35°18' E 139°45'612.2
2017-Oct-14 20:30N 35°12' E 139°47'612.2
2017-Oct-14 20:01N 35°06' E 139°46'815.7
2017-Oct-14 19:30N 34°58' E 139°43'815.3
2017-Oct-14 19:00N 34°51' E 139°47'1115.4
2017-Oct-14 18:18N 34°50' E 139°60'616.2
2017-Oct-14 17:58N 34°51' E 140°07'2816.0
2017-Oct-14 16:12N 35°04' E 140°37'4814.9
2017-Oct-14 13:00N 35°42' E 141°12'1818.0 030 / 191021.710.8 18.417.415.0
2017-Oct-14 12:00N 36°00' E 141°12'17215.6 020 / 221021.0 5.4 16.916.123.1
2017-Oct-14 01:00N 38°42' E 142°24'14516.2 330 / 101023.810.8 16.913.218.0
2017-Oct-13 16:00N 41°00' E 143°24'179 7.2 330 / 251022.110.8 13.0 7.914.0
2017-Oct-12 15:00N 42°54' E 146°30'2222.0 350 / 101012.810.8 10.5 9.511.0
2017-Oct-12 14:00N 42°54' E 147°00'1414.5 350 / 171011.410.8 10.810.413.0
2017-Oct-12 13:00N 43°00' E 147°18'   360 / 91011.210.8 10.4 9.811.7

Dump ship's entire track history